Portsmouth, New Hampshire
Current Conditions -  °F | °C
As of 9:58 AM on Monday 24 Nov 2014 (Local Time) from KPSM Reporting Station
Light Rain Light Rain  
Wind Chill: 56°   Ceiling: 400
Heat Index: 56°   Visibility: 2mi
Dew Point: 54°   Wind: 24mph
Humidity: 94%   Direction: 160°SSE
Pressure: 29.7"   Gusts: 33mph
Location:  43.07°N, 70.77°W
Report Text: KPSM 241458Z 16021G29KT 2SM -RA BR OVC004 13/12 A2970 RMK AO2A PK WND 15036/50 PRESFR SLP061 P0007 60021 T01320123 57060
Loading
Personal Weather Stations






























Interactive Weather Map New forecast layout! Learn more

10-Day Weather Forecast

Advertisements
Track Severe Weather on mobile